Time;durP1;ratioP1;P1;durP2;ratioP2;P2;SDS_P1;SDS_P2;PMS_P1;PMS_P2;Temp;Humidity;BMP_temperature;BMP_pressure;BME280_temperature;BME280_humidity;BME280_pressure;Samples;Min_cycle;Max_cycle;Signal;HPM_P1;HPM_P2
2021/11/27 00:02:16;;;;;;;21.07;13.40;;;;;;;6.73;100.00;100133.59;1726644;83;21177;-62
2021/11/27 00:04:44;;;;;;;23.25;13.38;;;;;;;6.88;100.00;100117.42;1744444;80;20921;-76
2021/11/27 00:07:11;;;;;;;23.77;14.78;;;;;;;7.11;100.00;100125.34;1749658;81;22383;-64
2021/11/27 00:09:39;;;;;;;21.62;13.13;;;;;;;7.36;100.00;100114.45;1750501;80;21493;-62
2021/11/27 00:12:08;;;;;;;21.42;13.08;;;;;;;7.21;100.00;100104.75;1738247;81;21048;-63
2021/11/27 00:14:38;;;;;;;22.35;13.53;;;;;;;7.35;100.00;100103.28;1719711;83;21487;-76
2021/11/27 00:17:04;;;;;;;22.95;13.32;;;;;;;7.87;100.00;100096.27;1748309;81;21134;-62
2021/11/27 00:19:33;;;;;;;25.62;12.70;;;;;;;8.14;98.50;100098.89;1719331;83;22035;-61
2021/11/27 00:22:00;;;;;;;24.35;14.58;;;;;;;8.07;98.78;100094.09;1749684;81;21021;-61
2021/11/27 00:24:29;;;;;;;18.82;12.63;;;;;;;8.26;97.24;100086.36;1754946;81;20929;-63
2021/11/27 00:26:56;;;;;;;23.87;13.45;;;;;;;8.15;94.57;100080.25;1708634;82;21607;-70
2021/11/27 00:29:23;;;;;;;22.58;13.15;;;;;;;8.28;96.79;100084.37;1734226;81;21318;-60
2021/11/27 00:31:52;;;;;;;27.10;15.00;;;;;;;8.32;94.22;100073.96;1749340;80;21016;-61
2021/11/27 00:34:20;;;;;;;22.07;12.33;;;;;;;8.00;96.00;100074.98;1750317;81;21013;-61
2021/11/27 00:36:47;;;;;;;21.90;13.15;;;;;;;7.45;100.00;100074.06;1749106;80;21024;-62
2021/11/27 00:39:14;;;;;;;23.45;13.60;;;;;;;7.88;100.00;100077.61;1748854;81;21629;-62
2021/11/27 00:41:42;;;;;;;21.17;12.63;;;;;;;8.14;97.15;100081.21;1749166;81;21040;-63
2021/11/27 00:44:10;;;;;;;22.30;12.93;;;;;;;8.16;99.17;100077.47;1750139;81;20933;-63
2021/11/27 00:46:38;;;;;;;21.87;13.25;;;;;;;8.21;99.78;100078.25;1749233;80;20956;-61
2021/11/27 00:49:05;;;;;;;23.62;13.13;;;;;;;8.34;98.32;100073.81;1748135;80;21082;-62
2021/11/27 00:51:33;;;;;;;23.12;13.48;;;;;;;8.03;100.00;100071.55;1749275;81;22204;-61
2021/11/27 00:54:00;;;;;;;25.55;14.70;;;;;;;8.40;100.00;100074.42;1748997;81;21075;-62
2021/11/27 00:56:27;;;;;;;24.72;14.45;;;;;;;8.26;100.00;100074.67;1748681;81;21062;-65
2021/11/27 00:58:56;;;;;;;23.42;14.33;;;;;;;8.44;100.00;100066.61;1748602;81;21158;-73
2021/11/27 01:01:27;;;;;;;22.93;14.00;;;;;;;8.53;97.35;100061.19;1749099;81;21043;-62
2021/11/27 01:03:56;;;;;;;24.87;15.45;;;;;;;8.63;99.16;100064.02;1747404;80;21519;-61
2021/11/27 01:06:25;;;;;;;24.55;15.10;;;;;;;7.89;100.00;100069.67;1742075;82;21490;-62
2021/11/27 01:08:55;;;;;;;27.90;15.30;;;;;;;7.40;100.00;100065.17;1742477;82;21112;-64
2021/11/27 01:11:28;;;;;;;25.40;14.23;;;;;;;7.20;100.00;100059.56;1742439;82;22449;-61
2021/11/27 01:13:59;;;;;;;25.60;13.90;;;;;;;7.20;100.00;100059.56;1741843;82;21017;-61
2021/11/27 01:16:29;;;;;;;23.57;13.98;;;;;;;7.38;100.00;100060.63;1737940;82;21130;-61
2021/11/27 01:18:56;;;;;;;26.68;15.63;;;;;;;7.49;100.00;100070.16;1731960;82;20937;-61
2021/11/27 01:21:26;;;;;;;24.07;14.47;;;;;;;7.94;100.00;100069.16;1733317;82;20972;-62
2021/11/27 01:23:55;;;;;;;26.20;15.35;;;;;;;8.82;100.00;100061.43;1732503;82;20989;-62
2021/11/27 01:26:23;;;;;;;25.88;15.75;;;;;;;8.26;100.00;100061.69;1732215;82;21519;-62
2021/11/27 01:28:50;;;;;;;25.88;15.20;;;;;;;7.63;100.00;100061.36;1732089;82;22495;-65
2021/11/27 01:31:18;;;;;;;22.98;14.00;;;;;;;7.82;100.00;100049.77;1732996;82;21483;-62
2021/11/27 01:33:46;;;;;;;22.13;13.62;;;;;;;7.67;100.00;100045.28;1731895;82;20942;-62
2021/11/27 01:36:13;;;;;;;20.43;12.90;;;;;;;8.13;100.00;100047.16;1732297;82;20946;-62
2021/11/27 01:38:42;;;;;;;24.27;12.88;;;;;;;8.34;100.00;100035.66;1732293;82;21044;-71
2021/11/27 01:41:09;;;;;;;20.72;12.10;;;;;;;8.26;100.00;100031.33;1669988;83;21679;-62
2021/11/27 01:43:38;;;;;;;21.37;12.50;;;;;;;8.80;98.07;100024.42;1715362;82;21505;-61
2021/11/27 01:46:05;;;;;;;20.23;12.30;;;;;;;8.89;95.81;100021.55;1725508;82;20989;-69
2021/11/27 01:48:32;;;;;;;22.25;12.88;;;;;;;8.99;92.49;100014.31;1733010;82;21037;-63
2021/11/27 01:51:04;;;;;;;19.10;11.45;;;;;;;9.16;88.32;100014.13;1731432;82;21096;-63
2021/11/27 01:53:35;;;;;;;19.20;12.35;;;;;;;8.17;97.00;100011.58;1733415;82;21311;-63
2021/11/27 01:56:06;;;;;;;20.05;12.47;;;;;;;8.30;100.00;100000.63;1732362;82;21042;-63
2021/11/27 01:58:34;;;;;;;21.27;13.45;;;;;;;8.21;99.46;99995.97;1733338;82;21085;-69
2021/11/27 02:01:07;;;;;;;21.33;13.58;;;;;;;8.14;100.00;100000.73;1732059;82;20993;-64
2021/11/27 02:03:34;;;;;;;24.65;14.78;;;;;;;8.19;99.86;99996.65;1731629;82;21587;-61
2021/11/27 02:06:17;;;;;;;25.17;13.60;;;;;;;8.34;97.00;99990.20;1730104;82;21115;-61
2021/11/27 02:08:47;;;;;;;19.10;11.53;;;;;;;8.42;93.78;99986.27;1730675;82;21012;-62
2021/11/27 02:11:15;;;;;;;19.17;10.55;;;;;;;8.24;96.47;99990.93;1732543;82;20980;-62
2021/11/27 02:13:43;;;;;;;19.77;10.53;;;;;;;8.36;97.09;99989.52;1714939;82;21037;-71
2021/11/27 02:16:10;;;;;;;21.70;12.78;;;;;;;8.33;96.67;99985.97;1736210;82;21005;-62
2021/11/27 02:18:38;;;;;;;23.18;11.78;;;;;;;8.38;98.62;99980.31;1735729;81;21396;-72
2021/11/27 02:21:10;;;;;;;16.40;9.73;;;;;;;8.15;97.98;99988.89;1735849;82;21047;-62
2021/11/27 02:23:38;;;;;;;16.85;10.50;;;;;;;8.24;98.72;99994.33;1736790;81;27378;-64
2021/11/27 02:26:09;;;;;;;15.58;9.65;;;;;;;8.34;97.49;99994.10;1736455;82;20926;-68
2021/11/27 02:28:40;;;;;;;16.87;9.75;;;;;;;8.58;92.73;99989.70;1735659;82;21115;-62
2021/11/27 02:31:07;;;;;;;15.53;9.55;;;;;;;8.65;90.54;99991.91;1736014;82;21222;-64
2021/11/27 02:33:36;;;;;;;16.40;9.58;;;;;;;9.01;86.30;99979.83;1736641;81;21001;-64
2021/11/27 02:36:04;;;;;;;20.17;9.70;;;;;;;9.40;82.20;99980.05;1734488;81;21041;-65
2021/11/27 02:38:31;;;;;;;13.45;7.92;;;;;;;9.20;83.56;99977.17;1734284;81;21107;-65
2021/11/27 02:40:59;;;;;;;15.18;8.88;;;;;;;9.58;82.40;99986.13;1736519;82;22326;-63
2021/11/27 02:43:27;;;;;;;14.43;9.38;;;;;;;8.92;90.35;99980.11;1736129;81;22017;-62
2021/11/27 02:45:54;;;;;;;21.75;10.82;;;;;;;8.99;90.89;99968.82;1734664;82;20996;-62
2021/11/27 02:48:21;;;;;;;12.53;7.67;;;;;;;6.42;100.00;99974.66;1733792;82;21064;-72
2021/11/27 02:50:49;;;;;;;12.43;7.83;;;;;;;6.37;100.00;99979.04;1735688;82;21624;-64
2021/11/27 02:53:17;;;;;;;13.43;8.25;;;;;;;5.91;100.00;99986.88;1736221;82;21475;-63
2021/11/27 02:55:44;;;;;;;12.75;6.95;;;;;;;6.67;100.00;99985.81;1736606;81;21562;-60
2021/11/27 02:58:12;;;;;;;15.60;7.90;;;;;;;7.16;100.00;99977.89;1737008;82;20973;-74
2021/11/27 03:00:41;;;;;;;14.58;8.43;;;;;;;7.72;100.00;99981.20;1715267;82;21643;-62
2021/11/27 03:03:08;;;;;;;14.07;8.68;;;;;;;8.40;100.00;99988.22;1724977;82;21092;-61
2021/11/27 03:05:37;;;;;;;15.05;9.23;;;;;;;8.75;100.00;99979.45;1736155;82;21017;-63
2021/11/27 03:08:05;;;;;;;17.67;9.83;;;;;;;8.79;96.71;99984.64;1715657;82;22158;-74
2021/11/27 03:10:32;;;;;;;16.60;9.63;;;;;;;8.05;100.00;99989.11;1743715;81;20949;-63
2021/11/27 03:13:01;;;;;;;17.25;8.13;;;;;;;8.09;100.00;99975.79;1748155;81;22475;-64
2021/11/27 03:15:29;;;;;;;13.28;8.35;;;;;;;7.76;100.00;99970.80;1749434;81;20958;-63
2021/11/27 03:17:58;;;;;;;15.10;10.00;;;;;;;7.80;100.00;99970.78;1750058;81;21444;-74
2021/11/27 03:20:25;;;;;;;16.10;9.35;;;;;;;7.92;100.00;99962.94;1749035;81;21097;-63
2021/11/27 03:22:52;;;;;;;14.33;8.85;;;;;;;7.89;100.00;99965.06;1749232;81;20982;-64
2021/11/27 03:25:20;;;;;;;15.85;8.85;;;;;;;6.49;100.00;99969.16;1748985;81;20927;-62
2021/11/27 03:27:47;;;;;;;13.95;8.83;;;;;;;6.98;100.00;99965.98;1749186;81;20975;-62
2021/11/27 03:30:17;;;;;;;16.07;9.20;;;;;;;7.59;100.00;99954.54;1749101;81;21018;-64
2021/11/27 03:32:47;;;;;;;20.40;11.80;;;;;;;7.72;100.00;99959.16;1749566;81;21374;-62
2021/11/27 03:35:16;;;;;;;22.10;13.03;;;;;;;7.94;100.00;99962.75;1748025;81;20938;-62
2021/11/27 03:37:45;;;;;;;24.98;15.70;;;;;;;7.71;100.00;99964.84;1749110;81;20978;-62
2021/11/27 03:40:14;;;;;;;31.35;18.32;;;;;;;7.83;100.00;99961.85;1750778;81;21081;-73
2021/11/27 03:42:43;;;;;;;29.15;19.32;;;;;;;8.21;100.00;99944.03;1749952;81;20977;-64
2021/11/27 03:45:14;;;;;;;33.83;22.13;;;;;;;8.29;97.95;99941.86;1750064;81;21634;-63
2021/11/27 03:47:59;;;;;;;34.58;24.02;;;;;;;8.12;98.52;99946.89;1750186;81;21546;-74
2021/11/27 03:50:32;;;;;;;33.73;21.40;;;;;;;8.14;99.43;99930.63;1750091;80;21507;-61
2021/11/27 03:53:00;;;;;;;30.82;20.50;;;;;;;8.28;97.54;99942.85;1749423;81;21051;-61
2021/11/27 03:55:27;;;;;;;27.87;18.95;;;;;;;7.96;99.15;99947.33;1749696;81;20977;-70
2021/11/27 03:57:54;;;;;;;27.37;17.70;;;;;;;8.05;100.00;99944.17;1749393;81;21136;-73
2021/11/27 04:00:22;;;;;;;23.47;16.00;;;;;;;8.03;100.00;99949.55;1744655;80;21504;-62
2021/11/27 04:02:51;;;;;;;23.83;14.45;;;;;;;8.24;97.44;99937.70;1670421;84;20899;-62
2021/11/27 04:05:20;;;;;;;29.00;17.42;;;;;;;8.71;92.58;99947.02;1656237;86;20987;-73
2021/11/27 04:07:47;;;;;;;23.62;15.15;;;;;;;8.77;89.08;99950.22;1643034;84;20971;-61
2021/11/27 04:10:16;;;;;;;26.55;16.15;;;;;;;7.40;97.96;99959.66;1655771;84;21119;-63
2021/11/27 04:12:45;;;;;;;27.77;17.10;;;;;;;6.68;100.00;99964.11;1656429;86;25667;-62
2021/11/27 04:15:14;;;;;;;29.63;16.00;;;;;;;6.55;100.00;99964.14;1655953;84;20951;-64
2021/11/27 04:17:44;;;;;;;35.65;17.15;;;;;;;6.51;100.00;99965.41;1655926;84;21533;-63
2021/11/27 04:20:11;;;;;;;34.85;16.07;;;;;;;7.00;100.00;99970.98;1655647;86;20951;-75
2021/11/27 04:22:39;;;;;;;31.33;15.88;;;;;;;7.12;100.00;99961.87;1656356;86;21133;-62
2021/11/27 04:25:08;;;;;;;29.63;14.83;;;;;;;7.40;100.00;99959.66;1645817;85;20872;-62
2021/11/27 04:27:35;;;;;;;20.75;10.35;;;;;;;7.62;100.00;99959.39;1655763;84;21130;-64
2021/11/27 04:30:06;;;;;;;19.70;10.80;;;;;;;6.90;100.00;99964.72;1656307;84;21363;-71
2021/11/27 04:32:33;;;;;;;19.80;10.82;;;;;;;6.98;100.00;99962.59;1643865;86;20923;-65
2021/11/27 04:35:02;;;;;;;21.00;11.80;;;;;;;6.98;100.00;99960.80;1655242;84;21159;-64
2021/11/27 04:37:29;;;;;;;19.82;10.23;;;;;;;7.12;100.00;99951.99;1663670;84;21049;-71
2021/11/27 04:39:57;;;;;;;20.85;11.12;;;;;;;6.84;100.00;99955.00;1656559;84;21089;-62
2021/11/27 04:42:26;;;;;;;19.37;10.32;;;;;;;6.68;100.00;99953.27;1655872;86;21027;-64
2021/11/27 04:44:54;;;;;;;21.68;10.88;;;;;;;6.79;100.00;99945.63;1656683;86;21117;-62
2021/11/27 04:47:22;;;;;;;18.67;10.40;;;;;;;6.71;100.00;99949.55;1655844;84;21102;-75
2021/11/27 04:49:49;;;;;;;19.00;10.53;;;;;;;6.74;100.00;99945.30;1656388;84;21155;-62
2021/11/27 04:52:20;;;;;;;19.77;9.85;;;;;;;6.77;100.00;99944.48;1656211;86;20995;-64
2021/11/27 04:54:48;;;;;;;18.67;10.13;;;;;;;6.80;100.00;99957.61;1656291;86;21109;-62
2021/11/27 04:57:15;;;;;;;20.10;11.08;;;;;;;6.81;100.00;99965.20;1656164;86;21066;-77
2021/11/27 04:59:44;;;;;;;21.45;11.38;;;;;;;7.02;100.00;99966.46;1656471;86;21431;-63
2021/11/27 05:02:13;;;;;;;18.15;10.30;;;;;;;6.92;100.00;99969.23;1649322;84;21027;-63
2021/11/27 05:04:40;;;;;;;16.62;8.55;;;;;;;6.62;100.00;99966.05;1645928;86;21060;-73
2021/11/27 05:07:07;;;;;;;15.95;8.50;;;;;;;6.73;100.00;99953.56;1657391;84;21431;-71
2021/11/27 05:09:36;;;;;;;15.53;8.63;;;;;;;6.71;100.00;99943.07;1646433;85;21070;-62
2021/11/27 05:12:04;;;;;;;14.35;7.67;;;;;;;6.73;100.00;99939.32;1650323;86;21429;-63
2021/11/27 05:14:32;;;;;;;17.87;9.73;;;;;;;6.70;100.00;99937.55;1624300;86;21035;-68
2021/11/27 05:17:00;;;;;;;12.37;7.62;;;;;;;6.69;100.00;99935.94;1660638;85;22492;-74
2021/11/27 05:19:28;;;;;;;18.92;10.15;;;;;;;6.68;100.00;99920.89;1662044;85;21084;-63
2021/11/27 05:22:03;;;;;;;22.77;12.75;;;;;;;7.08;99.78;99928.19;1657491;85;21560;-66
2021/11/27 05:24:31;;;;;;;21.90;9.95;;;;;;;6.96;100.00;99919.98;1653978;85;21081;-69
2021/11/27 05:27:05;;;;;;;16.35;9.10;;;;;;;6.88;100.00;99910.14;1623064;86;20983;-63
2021/11/27 05:29:51;;;;;;;15.00;8.75;;;;;;;6.85;100.00;99913.86;1653152;86;21055;-62
2021/11/27 05:32:38;;;;;;;18.17;9.10;;;;;;;6.93;98.00;99905.25;1640771;85;21020;-76
2021/11/27 05:34:54;;;;;;;17.27;9.10;;;;;;;6.63;99.38;99901.63;1653544;86;22271;-62
2021/11/27 05:37:21;;;;;;;18.05;9.78;;;;;;;6.65;100.00;99897.09;1625829;87;21147;-63
2021/11/27 05:39:48;;;;;;;17.07;9.50;;;;;;;6.16;100.00;99893.30;1653950;85;21635;-65
2021/11/27 05:42:16;;;;;;;18.95;10.08;;;;;;;6.00;100.00;99901.39;1631704;86;21020;-76
2021/11/27 05:44:46;;;;;;;15.20;8.40;;;;;;;5.75;100.00;99881.63;1627841;86;21000;-64
2021/11/27 05:47:14;;;;;;;15.20;8.60;;;;;;;5.52;100.00;99884.02;1652323;86;21007;-66
2021/11/27 05:49:43;;;;;;;12.90;6.97;;;;;;;5.69;100.00;99874.53;1626168;86;21173;-64
2021/11/27 05:52:13;;;;;;;12.98;6.97;;;;;;;5.61;100.00;99876.13;1616370;86;21032;-74
2021/11/27 05:54:40;;;;;;;16.35;8.13;;;;;;;5.98;100.00;99863.22;1652417;86;20959;-63
2021/11/27 05:57:07;;;;;;;11.25;6.45;;;;;;;6.14;100.00;99864.17;1652952;86;21008;-63
2021/11/27 05:59:35;;;;;;;7.42;4.85;;;;;;;6.38;100.00;99867.23;1625803;86;21147;-64
2021/11/27 06:02:03;;;;;;;8.60;5.42;;;;;;;6.38;100.00;99864.64;1653325;86;21070;-64
2021/11/27 06:04:32;;;;;;;8.48;4.85;;;;;;;6.39;100.00;99863.17;1623253;87;21023;-64
2021/11/27 06:07:01;;;;;;;10.53;5.72;;;;;;;6.50;100.00;99845.98;1652471;86;21135;-63
2021/11/27 06:09:29;;;;;;;10.93;5.87;;;;;;;6.46;100.00;99843.41;1625192;87;20996;-63
2021/11/27 06:11:57;;;;;;;9.33;5.50;;;;;;;6.44;100.00;99835.48;1653826;85;21536;-63
2021/11/27 06:14:24;;;;;;;10.50;6.53;;;;;;;6.54;100.00;99837.41;1623970;87;21933;-63
2021/11/27 06:16:52;;;;;;;10.58;5.85;;;;;;;6.48;100.00;99835.01;1653443;86;22377;-63
2021/11/27 06:19:20;;;;;;;9.30;5.92;;;;;;;6.54;100.00;99822.67;1625359;86;21028;-64
2021/11/27 06:21:47;;;;;;;11.00;5.40;;;;;;;6.95;100.00;99835.45;1653311;86;20991;-74
2021/11/27 06:24:15;;;;;;;10.98;7.08;;;;;;;7.20;96.11;99837.93;1624431;87;21072;-74
2021/11/27 06:26:45;;;;;;;10.68;6.00;;;;;;;7.27;94.29;99837.53;1652842;86;21512;-64
2021/11/27 06:29:12;;;;;;;12.33;7.80;;;;;;;7.45;92.46;99824.30;1625631;86;20945;-64
2021/11/27 06:31:39;;;;;;;14.87;8.85;;;;;;;7.55;89.89;99815.31;1653241;86;21059;-64
2021/11/27 06:34:09;;;;;;;11.75;6.37;;;;;;;7.46;89.06;99813.77;1624468;86;20973;-63
2021/11/27 06:36:37;;;;;;;11.43;6.17;;;;;;;7.25;91.88;99823.46;1652689;86;21066;-63
2021/11/27 06:39:04;;;;;;;13.95;6.83;;;;;;;7.09;95.26;99806.72;1625335;86;21178;-63
2021/11/27 06:41:32;;;;;;;17.48;6.87;;;;;;;7.52;93.90;99806.58;1652771;86;20931;-63
2021/11/27 06:44:01;;;;;;;13.55;8.03;;;;;;;7.74;89.49;99811.42;1645095;86;21067;-69
2021/11/27 06:46:36;;;;;;;14.30;9.00;;;;;;;7.84;86.46;99816.38;1652483;86;21090;-75
2021/11/27 06:49:03;;;;;;;10.50;6.97;;;;;;;8.21;82.77;99809.02;1623806;87;21131;-63
2021/11/27 06:51:31;;;;;;;10.20;6.50;;;;;;;8.02;85.68;99804.36;1652048;86;21152;-63
2021/11/27 06:53:59;;;;;;;15.35;8.93;;;;;;;7.55;91.62;99807.53;1621587;86;20989;-68
2021/11/27 06:56:26;;;;;;;12.35;7.90;;;;;;;7.72;92.14;99794.41;1605043;87;22091;-71
2021/11/27 06:58:54;;;;;;;11.95;7.85;;;;;;;7.74;93.26;99816.62;1615519;86;21063;-64
2021/11/27 07:01:23;;;;;;;10.78;7.12;;;;;;;7.66;95.57;99819.28;1607773;85;21583;-63
2021/11/27 07:04:08;;;;;;;11.48;6.58;;;;;;;8.11;90.78;99810.30;1648297;85;21221;-63
2021/11/27 07:06:46;;;;;;;15.00;9.15;;;;;;;8.02;89.44;99806.45;1647535;85;21153;-64
2021/11/27 07:09:14;;;;;;;9.93;6.08;;;;;;;8.15;90.13;99805.06;1653890;85;20982;-63
2021/11/27 07:11:44;;;;;;;10.38;6.50;;;;;;;8.44;86.92;99806.36;1653156;85;21088;-63
2021/11/27 07:14:12;;;;;;;11.68;7.08;;;;;;;8.62;85.08;99820.79;1643279;85;21011;-65
2021/11/27 07:16:40;;;;;;;10.60;6.50;;;;;;;8.66;84.22;99827.23;1645624;85;21151;-64
2021/11/27 07:19:07;;;;;;;11.12;6.97;;;;;;;8.70;84.78;99823.28;1647609;85;20964;-65
2021/11/27 07:21:34;;;;;;;12.07;8.10;;;;;;;8.14;94.83;99822.89;1661327;84;22208;-66
2021/11/27 07:24:01;;;;;;;12.00;7.25;;;;;;;7.62;100.00;99810.73;1669665;85;21022;-68
2021/11/27 07:26:30;;;;;;;11.75;7.37;;;;;;;7.53;100.00;99814.66;1668918;85;20985;-66
2021/11/27 07:28:58;;;;;;;10.85;7.47;;;;;;;7.67;100.00;99813.60;1701282;82;21193;-65
2021/11/27 07:31:26;;;;;;;13.78;8.23;;;;;;;7.61;100.00;99811.20;1701945;82;21019;-73
2021/11/27 07:33:54;;;;;;;16.48;9.33;;;;;;;7.80;100.00;99800.36;1705129;82;21129;-73
2021/11/27 07:36:22;;;;;;;13.85;7.67;;;;;;;7.80;100.00;99783.95;1720389;82;21025;-71
2021/11/27 07:38:49;;;;;;;11.83;7.97;;;;;;;7.56;100.00;99781.09;1708314;82;20958;-69
2021/11/27 07:41:16;;;;;;;12.23;8.20;;;;;;;7.69;100.00;99783.91;1702180;82;21140;-76
2021/11/27 07:43:43;;;;;;;12.70;8.93;;;;;;;7.50;100.00;99782.61;1704681;84;21529;-69
2021/11/27 07:46:12;;;;;;;10.53;7.62;;;;;;;7.75;100.00;99768.12;1701656;82;21670;-67
2021/11/27 07:48:58;;;;;;;13.30;7.75;;;;;;;8.15;100.00;99769.52;1703906;82;21043;-71
2021/11/27 07:51:44;;;;;;;11.18;6.62;;;;;;;7.94;100.00;99765.02;1703809;82;21003;-66
2021/11/27 07:54:11;;;;;;;11.33;6.55;;;;;;;7.67;100.00;99762.52;1714875;82;22109;-67
2021/11/27 07:56:39;;;;;;;9.65;6.78;;;;;;;7.30;100.00;99759.42;1704340;82;21470;-70
2021/11/27 07:59:06;;;;;;;12.15;7.72;;;;;;;6.94;100.00;99765.19;1703456;82;20983;-64
2021/11/27 08:01:34;;;;;;;10.63;7.25;;;;;;;6.81;100.00;99756.66;1696164;82;20975;-66
2021/11/27 08:04:01;;;;;;;12.13;8.30;;;;;;;6.27;100.00;99763.06;1706175;83;21609;-64
2021/11/27 08:06:30;;;;;;;11.18;7.58;;;;;;;5.82;100.00;99748.11;1706761;83;21239;-63
2021/11/27 08:08:57;;;;;;;11.20;7.45;;;;;;;5.18;100.00;99752.34;1703366;82;20940;-64
2021/11/27 08:11:25;;;;;;;8.83;6.28;;;;;;;4.96;100.00;99746.01;1705381;82;21374;-68
2021/11/27 08:13:53;;;;;;;14.63;7.80;;;;;;;5.12;100.00;99739.59;1702195;82;21458;-64
2021/11/27 08:16:20;;;;;;;13.62;9.03;;;;;;;5.35;100.00;99735.39;1684732;84;21126;-68
2021/11/27 08:18:49;;;;;;;19.48;10.88;;;;;;;5.69;100.00;99738.28;1698865;82;21144;-69
2021/11/27 08:21:17;;;;;;;16.82;10.05;;;;;;;6.20;100.00;99731.05;1704281;82;21008;-68
2021/11/27 08:23:45;;;;;;;14.83;10.08;;;;;;;6.77;100.00;99724.80;1696798;82;20976;-71
2021/11/27 08:26:12;;;;;;;12.85;8.00;;;;;;;7.32;100.00;99719.87;1710535;82;21149;-68
2021/11/27 08:28:39;;;;;;;8.95;6.80;;;;;;;7.22;100.00;99710.23;1715198;82;21576;-67
2021/11/27 08:31:08;;;;;;;12.82;7.87;;;;;;;7.27;100.00;99724.30;1706068;84;22384;-65
2021/11/27 08:33:37;;;;;;;11.08;6.67;;;;;;;7.22;100.00;99718.81;1704697;82;21055;-66
2021/11/27 08:36:07;;;;;;;10.23;6.80;;;;;;;7.40;100.00;99714.62;1716814;82;21364;-66
2021/11/27 08:38:37;;;;;;;10.35;7.37;;;;;;;7.64;100.00;99703.70;1721373;82;21046;-67
2021/11/27 08:41:07;;;;;;;9.33;6.60;;;;;;;7.70;100.00;99686.14;1713343;82;21042;-66
2021/11/27 08:43:36;;;;;;;10.55;5.67;;;;;;;7.94;100.00;99678.08;1713104;82;21161;-70
2021/11/27 08:46:03;;;;;;;9.43;6.00;;;;;;;7.86;100.00;99683.86;1707071;84;20987;-62
2021/11/27 08:48:36;;;;;;;10.03;6.72;;;;;;;7.64;100.00;99681.66;1706803;83;20892;-66
2021/11/27 08:51:03;;;;;;;12.23;7.30;;;;;;;7.85;100.00;99677.06;1704896;83;20913;-63
2021/11/27 08:53:31;;;;;;;12.33;6.78;;;;;;;7.88;100.00;99665.84;1705998;83;21134;-68
2021/11/27 08:55:59;;;;;;;8.70;6.00;;;;;;;8.03;100.00;99653.66;1704623;84;21347;-64
2021/11/27 08:58:27;;;;;;;10.32;6.78;;;;;;;7.95;100.00;99657.61;1704247;83;21657;-73
2021/11/27 09:00:55;;;;;;;8.65;6.15;;;;;;;8.17;100.00;99657.69;1706752;83;20945;-64
2021/11/27 09:03:22;;;;;;;9.43;5.65;;;;;;;8.09;100.00;99656.00;1705719;83;21662;-71
2021/11/27 09:05:50;;;;;;;7.65;5.25;;;;;;;8.26;100.00;99653.52;1703962;82;21193;-64
2021/11/27 09:08:19;;;;;;;8.43;5.78;;;;;;;8.51;100.00;99644.91;1705150;82;21130;-72
2021/11/27 09:10:49;;;;;;;10.15;6.30;;;;;;;8.68;100.00;99644.69;1705382;82;21030;-63
2021/11/27 09:13:16;;;;;;;10.15;6.92;;;;;;;8.81;100.00;99634.91;1720605;82;21062;-72
2021/11/27 09:15:43;;;;;;;9.50;6.67;;;;;;;8.69;100.00;99625.51;1706465;84;21161;-64
2021/11/27 09:18:11;;;;;;;10.70;6.60;;;;;;;8.98;100.00;99621.47;1706471;84;20900;-64
2021/11/27 09:20:41;;;;;;;11.75;7.50;;;;;;;9.35;100.00;99614.30;1706715;83;21524;-67
2021/11/27 09:23:08;;;;;;;8.90;6.25;;;;;;;9.39;100.00;99613.43;1661562;85;21436;-64
2021/11/27 09:25:36;;;;;;;10.68;6.97;;;;;;;8.98;100.00;99593.38;1642930;87;20973;-63
2021/11/27 09:28:04;;;;;;;12.00;7.60;;;;;;;8.95;100.00;99593.74;1648743;86;21150;-65
2021/11/27 09:30:32;;;;;;;12.00;8.30;;;;;;;9.10;100.00;99587.95;1674455;85;21050;-64
2021/11/27 09:33:00;;;;;;;12.15;6.67;;;;;;;9.11;100.00;99591.35;1649835;86;21164;-63
2021/11/27 09:35:28;;;;;;;34.63;19.70;;;;;;;9.23;100.00;99580.23;1672837;84;20992;-65
2021/11/27 09:37:55;;;;;;;20.62;14.53;;;;;;;9.11;100.00;99574.45;1649616;85;21589;-70
2021/11/27 09:40:23;;;;;;;13.38;7.78;;;;;;;9.11;100.00;99562.25;1655497;84;21059;-66
2021/11/27 09:42:52;;;;;;;13.18;8.80;;;;;;;9.35;100.00;99564.89;1656361;83;21066;-65
2021/11/27 09:45:25;;;;;;;11.33;8.38;;;;;;;9.41;100.00;99558.92;1660736;83;21133;-65
2021/11/27 09:47:55;;;;;;;15.03;8.03;;;;;;;9.39;100.00;99551.00;1648566;84;21051;-69
2021/11/27 09:50:24;;;;;;;11.65;8.85;;;;;;;9.43;100.00;99543.95;1645922;85;21086;-65
2021/11/27 09:52:52;;;;;;;12.55;6.80;;;;;;;9.58;100.00;99559.90;1646190;85;21521;-66
2021/11/27 09:55:19;;;;;;;11.20;5.83;;;;;;;9.67;100.00;99550.95;1646161;85;21540;-66
2021/11/27 09:57:47;;;;;;;9.98;5.83;;;;;;;9.68;100.00;99556.45;1647858;84;21565;-71
2021/11/27 10:00:16;;;;;;;8.38;5.60;;;;;;;9.97;100.00;99542.34;1646018;85;21002;-68
2021/11/27 10:02:43;;;;;;;9.45;4.85;;;;;;;10.12;100.00;99539.07;1645771;85;21095;-68
2021/11/27 10:05:13;;;;;;;9.33;6.28;;;;;;;10.16;100.00;99531.66;1645526;85;21595;-68
2021/11/27 10:07:41;;;;;;;22.52;13.18;;;;;;;10.30;100.00;99519.47;1646353;85;20999;-69
2021/11/27 10:10:09;;;;;;;11.15;5.87;;;;;;;10.54;100.00;99515.50;1643502;85;21328;-69
2021/11/27 10:12:40;;;;;;;9.45;5.65;;;;;;;10.68;100.00;99523.59;1646459;85;21003;-69
2021/11/27 10:15:08;;;;;;;9.23;6.00;;;;;;;10.99;100.00;99505.23;1646187;85;21015;-68
2021/11/27 10:17:38;;;;;;;8.95;5.60;;;;;;;11.25;100.00;99498.64;1646770;85;21126;-71
2021/11/27 10:20:07;;;;;;;7.45;4.67;;;;;;;11.16;100.00;99499.34;1647300;85;21003;-69
2021/11/27 10:22:44;;;;;;;10.90;5.85;;;;;;;11.45;100.00;99494.14;1646226;85;21087;-69
2021/11/27 10:25:30;;;;;;;8.53;4.95;;;;;;;10.24;100.00;99502.83;1645313;85;21607;-69
2021/11/27 10:28:12;;;;;;;7.17;4.10;;;;;;;9.73;100.00;99498.10;1645505;85;21031;-69
2021/11/27 10:30:47;;;;;;;6.28;3.67;;;;;;;9.83;100.00;99493.33;1646277;85;21587;-70
2021/11/27 10:33:15;;;;;;;7.70;4.20;;;;;;;9.64;100.00;99483.67;1648076;85;21533;-71
2021/11/27 10:35:58;;;;;;;8.68;4.65;;;;;;;9.51;100.00;99494.84;1661089;84;21157;-72
2021/11/27 10:38:44;;;;;;;6.72;3.85;;;;;;;9.77;100.00;99479.79;1654317;84;21062;-72
2021/11/27 10:41:15;;;;;;;7.17;4.05;;;;;;;10.05;100.00;99468.45;1654738;84;21085;-74
2021/11/27 10:44:05;;;;;;;5.08;3.22;;;;;;;10.04;100.00;99466.83;1659541;84;21511;-74
2021/11/27 10:46:35;;;;;;;7.50;3.60;;;;;;;9.72;100.00;99470.48;1656623;85;21150;-73
2021/11/27 10:49:10;;;;;;;7.22;3.85;;;;;;;9.69;100.00;99469.56;1655599;85;21069;-72
2021/11/27 10:51:37;;;;;;;6.60;3.50;;;;;;;9.37;100.00;99460.67;1656169;84;21173;-72
2021/11/27 10:54:06;;;;;;;6.03;3.30;;;;;;;9.50;100.00;99462.80;1645539;85;21027;-73
2021/11/27 10:56:47;;;;;;;5.83;3.30;;;;;;;9.90;100.00;99448.59;1668894;84;21075;-73
2021/11/27 10:59:16;;;;;;;6.05;3.75;;;;;;;9.89;100.00;99459.22;1670210;84;21016;-72
2021/11/27 11:02:08;;;;;;;6.28;3.80;;;;;;;10.07;100.00;99447.70;1670471;84;21785;-73
2021/11/27 11:04:34;;;;;;;;;;;;;;;10.15;100.00;99451.44;1677930;85;21073;-74
2021/11/27 11:07:27;;;;;;;6.92;3.77;;;;;;;10.41;100.00;99449.34;1677050;85;20187;-74
2021/11/27 11:10:14;;;;;;;;;;;;;;;10.64;100.00;99449.41;1674257;84;21525;-75
2021/11/27 11:12:46;;;;;;;6.33;3.85;;;;;;;10.82;100.00;99455.31;1668179;84;20088;-73
2021/11/27 11:15:27;;;;;;;6.47;3.95;;;;;;;11.05;100.00;99443.91;1670718;85;21564;-75
2021/11/27 11:18:11;;;;;;;7.17;3.95;;;;;;;10.91;100.00;99454.89;1669725;84;21498;-76
2021/11/27 11:20:46;;;;;;;7.30;4.35;;;;;;;11.25;100.00;99447.77;1666056;84;22326;-75
2021/11/27 11:23:32;;;;;;;7.12;4.33;;;;;;;11.23;97.06;99454.98;1660513;85;21569;-75
2021/11/27 11:26:13;;;;;;;6.65;4.22;;;;;;;10.92;99.49;99453.09;1669481;85;21064;-76
2021/11/27 11:28:56;;;;;;;8.88;4.60;;;;;;;11.45;94.99;99458.91;1670314;85;21174;-72
2021/11/27 11:31:28;;;;;;;12.90;6.92;;;;;;;11.09;98.98;99437.77;1662093;85;21510;-74
2021/11/27 11:33:57;;;;;;;8.60;5.08;;;;;;;11.01;100.00;99444.53;1670130;83;21035;-74
2021/11/27 11:36:25;;;;;;;7.25;4.30;;;;;;;10.92;100.00;99444.76;1671056;84;21028;-75